sensor_id;sensor_type;location;lat;lon;timestamp;temperature;humidity
12811;DHT22;6470;47.654;7.896;2024-02-23T00:02:31;3.00;99.90
12811;DHT22;6470;47.654;7.896;2024-02-23T00:04:57;2.80;99.90
12811;DHT22;6470;47.654;7.896;2024-02-23T00:07:23;6.20;99.90
12811;DHT22;6470;47.654;7.896;2024-02-23T00:09:49;5.90;99.90
12811;DHT22;6470;47.654;7.896;2024-02-23T00:14:40;5.60;99.90
12811;DHT22;6470;47.654;7.896;2024-02-23T00:19:32;2.20;99.90
12811;DHT22;6470;47.654;7.896;2024-02-23T00:21:58;5.40;99.90
12811;DHT22;6470;47.654;7.896;2024-02-23T00:24:25;5.20;99.90
12811;DHT22;6470;47.654;7.896;2024-02-23T00:29:17;1.90;99.90
12811;DHT22;6470;47.654;7.896;2024-02-23T00:31:43;4.60;99.90
12811;DHT22;6470;47.654;7.896;2024-02-23T00:36:39;4.40;99.90
12811;DHT22;6470;47.654;7.896;2024-02-23T00:39:06;5.00;99.90
12811;DHT22;6470;47.654;7.896;2024-02-23T00:41:35;4.40;99.90
12811;DHT22;6470;47.654;7.896;2024-02-23T00:44:02;5.00;99.90
12811;DHT22;6470;47.654;7.896;2024-02-23T00:46:29;4.60;99.90
12811;DHT22;6470;47.654;7.896;2024-02-23T00:51:21;4.90;99.90
12811;DHT22;6470;47.654;7.896;2024-02-23T00:53:47;1.80;99.90
12811;DHT22;6470;47.654;7.896;2024-02-23T00:56:12;4.70;99.90
12811;DHT22;6470;47.654;7.896;2024-02-23T00:58:39;4.70;99.90
12811;DHT22;6470;47.654;7.896;2024-02-23T01:01:04;1.50;99.90
12811;DHT22;6470;47.654;7.896;2024-02-23T01:03:30;4.70;99.90
12811;DHT22;6470;47.654;7.896;2024-02-23T01:15:41;4.60;99.90
12811;DHT22;6470;47.654;7.896;2024-02-23T01:18:07;4.40;99.90
12811;DHT22;6470;47.654;7.896;2024-02-23T01:20:33;1.40;99.90
12811;DHT22;6470;47.654;7.896;2024-02-23T01:22:59;4.50;99.90
12811;DHT22;6470;47.654;7.896;2024-02-23T01:25:25;2.10;99.90
12811;DHT22;6470;47.654;7.896;2024-02-23T01:27:51;1.30;99.90
12811;DHT22;6470;47.654;7.896;2024-02-23T01:30:16;1.30;99.90
12811;DHT22;6470;47.654;7.896;2024-02-23T01:32:42;5.20;99.90
12811;DHT22;6470;47.654;7.896;2024-02-23T01:35:08;4.30;99.90
12811;DHT22;6470;47.654;7.896;2024-02-23T01:40:01;3.80;99.90
12811;DHT22;6470;47.654;7.896;2024-02-23T01:42:27;4.80;99.90
12811;DHT22;6470;47.654;7.896;2024-02-23T01:44:52;4.20;99.90
12811;DHT22;6470;47.654;7.896;2024-02-23T01:47:19;5.00;99.90
12811;DHT22;6470;47.654;7.896;2024-02-23T01:49:47;4.00;99.90
12811;DHT22;6470;47.654;7.896;2024-02-23T01:52:14;4.70;99.90
12811;DHT22;6470;47.654;7.896;2024-02-23T01:54:41;4.00;99.90
12811;DHT22;6470;47.654;7.896;2024-02-23T01:57:07;4.20;99.90
12811;DHT22;6470;47.654;7.896;2024-02-23T01:59:35;1.70;99.90
12811;DHT22;6470;47.654;7.896;2024-02-23T02:02:03;5.00;99.90
12811;DHT22;6470;47.654;7.896;2024-02-23T02:04:29;5.20;99.90
12811;DHT22;6470;47.654;7.896;2024-02-23T02:06:55;4.80;99.90
12811;DHT22;6470;47.654;7.896;2024-02-23T02:09:21;4.10;99.90
12811;DHT22;6470;47.654;7.896;2024-02-23T02:11:48;5.10;99.90
12811;DHT22;6470;47.654;7.896;2024-02-23T02:14:17;5.50;99.90
12811;DHT22;6470;47.654;7.896;2024-02-23T02:16:43;5.00;99.90
12811;DHT22;6470;47.654;7.896;2024-02-23T02:19:13;5.70;99.90
12811;DHT22;6470;47.654;7.896;2024-02-23T02:21:40;5.50;99.90
12811;DHT22;6470;47.654;7.896;2024-02-23T02:24:06;5.00;99.90
12811;DHT22;6470;47.654;7.896;2024-02-23T02:28:59;4.40;99.90
12811;DHT22;6470;47.654;7.896;2024-02-23T02:33:51;5.00;99.90
12811;DHT22;6470;47.654;7.896;2024-02-23T02:38:42;5.40;99.90
12811;DHT22;6470;47.654;7.896;2024-02-23T02:41:09;5.30;99.90
12811;DHT22;6470;47.654;7.896;2024-02-23T02:53:20;5.40;99.90
12811;DHT22;6470;47.654;7.896;2024-02-23T02:58:12;5.00;99.90
12811;DHT22;6470;47.654;7.896;2024-02-23T03:00:38;1.80;99.90
12811;DHT22;6470;47.654;7.896;2024-02-23T03:05:30;2.50;99.90
12811;DHT22;6470;47.654;7.896;2024-02-23T03:07:56;4.60;99.90
12811;DHT22;6470;47.654;7.896;2024-02-23T03:12:48;5.10;99.90
12811;DHT22;6470;47.654;7.896;2024-02-23T03:15:14;5.00;99.90
12811;DHT22;6470;47.654;7.896;2024-02-23T03:20:06;2.60;99.90
12811;DHT22;6470;47.654;7.896;2024-02-23T03:22:39;5.00;99.90
12811;DHT22;6470;47.654;7.896;2024-02-23T03:25:05;5.60;99.90
12811;DHT22;6470;47.654;7.896;2024-02-23T03:27:35;5.50;99.90
12811;DHT22;6470;47.654;7.896;2024-02-23T03:30:04;4.50;99.90
12811;DHT22;6470;47.654;7.896;2024-02-23T03:35:05;5.00;99.90
12811;DHT22;6470;47.654;7.896;2024-02-23T03:37:31;5.30;99.90
12811;DHT22;6470;47.654;7.896;2024-02-23T03:39:56;5.00;99.90
12811;DHT22;6470;47.654;7.896;2024-02-23T03:42:22;5.60;99.90
12811;DHT22;6470;47.654;7.896;2024-02-23T03:54:32;5.10;99.90
12811;DHT22;6470;47.654;7.896;2024-02-23T03:56:58;4.80;99.90
12811;DHT22;6470;47.654;7.896;2024-02-23T03:59:24;4.90;99.90
12811;DHT22;6470;47.654;7.896;2024-02-23T04:01:49;2.00;99.90
12811;DHT22;6470;47.654;7.896;2024-02-23T04:04:15;4.90;99.90
12811;DHT22;6470;47.654;7.896;2024-02-23T04:09:07;4.90;99.90
12811;DHT22;6470;47.654;7.896;2024-02-23T04:11:34;4.70;99.90
12811;DHT22;6470;47.654;7.896;2024-02-23T04:14:00;5.00;99.90
12811;DHT22;6470;47.654;7.896;2024-02-23T04:16:26;4.70;99.90
12811;DHT22;6470;47.654;7.896;2024-02-23T04:18:53;4.80;99.90
12811;DHT22;6470;47.654;7.896;2024-02-23T04:21:19;4.80;99.90
12811;DHT22;6470;47.654;7.896;2024-02-23T04:23:45;4.70;99.90
12811;DHT22;6470;47.654;7.896;2024-02-23T04:26:11;4.60;99.90
12811;DHT22;6470;47.654;7.896;2024-02-23T04:28:41;4.50;99.90
12811;DHT22;6470;47.654;7.896;2024-02-23T04:31:08;4.50;99.90
12811;DHT22;6470;47.654;7.896;2024-02-23T04:33:35;4.90;99.90
12811;DHT22;6470;47.654;7.896;2024-02-23T04:36:01;5.00;99.90
12811;DHT22;6470;47.654;7.896;2024-02-23T04:40:55;5.20;99.90
12811;DHT22;6470;47.654;7.896;2024-02-23T04:43:22;1.60;99.90
12811;DHT22;6470;47.654;7.896;2024-02-23T04:45:48;4.90;99.90
12811;DHT22;6470;47.654;7.896;2024-02-23T04:48:14;1.50;99.90
12811;DHT22;6470;47.654;7.896;2024-02-23T04:53:06;4.70;99.90
12811;DHT22;6470;47.654;7.896;2024-02-23T04:55:33;4.30;99.90
12811;DHT22;6470;47.654;7.896;2024-02-23T04:57:59;4.40;99.90
12811;DHT22;6470;47.654;7.896;2024-02-23T05:00:24;4.60;99.90
12811;DHT22;6470;47.654;7.896;2024-02-23T05:02:54;4.40;99.90
12811;DHT22;6470;47.654;7.896;2024-02-23T05:05:19;4.90;99.90
12811;DHT22;6470;47.654;7.896;2024-02-23T05:07:47;4.70;99.90
12811;DHT22;6470;47.654;7.896;2024-02-23T05:10:13;4.90;99.90
12811;DHT22;6470;47.654;7.896;2024-02-23T05:15:05;4.70;99.90
12811;DHT22;6470;47.654;7.896;2024-02-23T05:17:31;3.70;99.90
12811;DHT22;6470;47.654;7.896;2024-02-23T05:19:56;4.80;99.90
12811;DHT22;6470;47.654;7.896;2024-02-23T05:24:48;1.70;99.90
12811;DHT22;6470;47.654;7.896;2024-02-23T05:27:14;4.50;99.90
12811;DHT22;6470;47.654;7.896;2024-02-23T05:29:39;4.30;99.90
12811;DHT22;6470;47.654;7.896;2024-02-23T05:32:05;0.80;99.90
12811;DHT22;6470;47.654;7.896;2024-02-23T05:36:57;3.70;99.90
12811;DHT22;6470;47.654;7.896;2024-02-23T05:39:23;4.10;99.90
12811;DHT22;6470;47.654;7.896;2024-02-23T05:41:48;3.50;99.90
12811;DHT22;6470;47.654;7.896;2024-02-23T05:49:06;4.10;99.90
12811;DHT22;6470;47.654;7.896;2024-02-23T05:51:32;0.70;99.90
12811;DHT22;6470;47.654;7.896;2024-02-23T05:53:59;0.40;99.90
12811;DHT22;6470;47.654;7.896;2024-02-23T05:56:24;0.40;99.90
12811;DHT22;6470;47.654;7.896;2024-02-23T05:58:51;0.70;99.90
12811;DHT22;6470;47.654;7.896;2024-02-23T06:03:43;3.70;99.90
12811;DHT22;6470;47.654;7.896;2024-02-23T06:06:10;3.80;99.90
12811;DHT22;6470;47.654;7.896;2024-02-23T06:08:36;3.10;99.90
12811;DHT22;6470;47.654;7.896;2024-02-23T06:13:32;3.50;99.90
12811;DHT22;6470;47.654;7.896;2024-02-23T06:15:59;3.60;99.90
12811;DHT22;6470;47.654;7.896;2024-02-23T06:18:25;3.50;99.90
12811;DHT22;6470;47.654;7.896;2024-02-23T06:20:50;3.60;99.90
12811;DHT22;6470;47.654;7.896;2024-02-23T06:23:16;3.80;99.90
12811;DHT22;6470;47.654;7.896;2024-02-23T06:25:42;0.40;99.90
12811;DHT22;6470;47.654;7.896;2024-02-23T06:28:09;3.50;99.90
12811;DHT22;6470;47.654;7.896;2024-02-23T06:33:01;2.80;99.90
12811;DHT22;6470;47.654;7.896;2024-02-23T06:35:27;3.00;99.90
12811;DHT22;6470;47.654;7.896;2024-02-23T06:37:52;2.80;99.90
12811;DHT22;6470;47.654;7.896;2024-02-23T06:40:18;2.80;99.90
12811;DHT22;6470;47.654;7.896;2024-02-23T06:45:10;2.40;99.90
12811;DHT22;6470;47.654;7.896;2024-02-23T06:47:36;3.30;99.90
12811;DHT22;6470;47.654;7.896;2024-02-23T06:50:02;3.20;99.90
12811;DHT22;6470;47.654;7.896;2024-02-23T06:52:29;3.40;99.90
12811;DHT22;6470;47.654;7.896;2024-02-23T06:57:20;3.10;99.90
12811;DHT22;6470;47.654;7.896;2024-02-23T06:59:48;3.00;99.90
12811;DHT22;6470;47.654;7.896;2024-02-23T07:02:14;3.10;99.90
12811;DHT22;6470;47.654;7.896;2024-02-23T07:09:34;3.10;99.90
12811;DHT22;6470;47.654;7.896;2024-02-23T07:12:00;3.20;99.90
12811;DHT22;6470;47.654;7.896;2024-02-23T07:14:26;-0.20;99.90
12811;DHT22;6470;47.654;7.896;2024-02-23T07:16:51;3.20;99.90
12811;DHT22;6470;47.654;7.896;2024-02-23T07:21:45;3.30;99.90
12811;DHT22;6470;47.654;7.896;2024-02-23T07:24:11;2.90;99.90
12811;DHT22;6470;47.654;7.896;2024-02-23T07:26:37;3.50;99.90
12811;DHT22;6470;47.654;7.896;2024-02-23T07:29:03;3.60;99.90
12811;DHT22;6470;47.654;7.896;2024-02-23T07:31:29;3.60;99.90
12811;DHT22;6470;47.654;7.896;2024-02-23T07:33:55;3.20;99.90
12811;DHT22;6470;47.654;7.896;2024-02-23T07:36:20;3.30;99.90
12811;DHT22;6470;47.654;7.896;2024-02-23T07:38:47;2.90;99.90
12811;DHT22;6470;47.654;7.896;2024-02-23T07:41:13;2.80;99.90
12811;DHT22;6470;47.654;7.896;2024-02-23T07:46:06;4.00;99.90
12811;DHT22;6470;47.654;7.896;2024-02-23T07:48:37;4.30;99.90
12811;DHT22;6470;47.654;7.896;2024-02-23T07:51:04;4.20;99.90
12811;DHT22;6470;47.654;7.896;2024-02-23T07:53:30;3.80;99.90
12811;DHT22;6470;47.654;7.896;2024-02-23T07:55:57;3.10;99.90
12811;DHT22;6470;47.654;7.896;2024-02-23T07:58:25;3.60;99.90
12811;DHT22;6470;47.654;7.896;2024-02-23T08:00:52;4.10;99.90
12811;DHT22;6470;47.654;7.896;2024-02-23T08:03:18;4.00;99.90
12811;DHT22;6470;47.654;7.896;2024-02-23T08:08:12;4.30;99.90
12811;DHT22;6470;47.654;7.896;2024-02-23T08:10:38;5.10;99.90
12811;DHT22;6470;47.654;7.896;2024-02-23T08:13:04;5.00;99.90
12811;DHT22;6470;47.654;7.896;2024-02-23T08:15:29;2.10;99.90
12811;DHT22;6470;47.654;7.896;2024-02-23T08:17:55;6.20;99.90
12811;DHT22;6470;47.654;7.896;2024-02-23T08:20:21;5.60;99.90
12811;DHT22;6470;47.654;7.896;2024-02-23T08:22:47;5.70;99.90
12811;DHT22;6470;47.654;7.896;2024-02-23T08:25:12;5.00;99.90
12811;DHT22;6470;47.654;7.896;2024-02-23T08:27:38;6.00;99.90
12811;DHT22;6470;47.654;7.896;2024-02-23T08:30:06;5.80;99.90
12811;DHT22;6470;47.654;7.896;2024-02-23T08:32:32;6.60;99.90
12811;DHT22;6470;47.654;7.896;2024-02-23T08:34:58;6.30;99.90
12811;DHT22;6470;47.654;7.896;2024-02-23T08:37:28;6.90;99.90
12811;DHT22;6470;47.654;7.896;2024-02-23T08:39:54;6.30;99.90
12811;DHT22;6470;47.654;7.896;2024-02-23T08:42:20;7.10;99.90
12811;DHT22;6470;47.654;7.896;2024-02-23T08:44:45;6.70;99.90
12811;DHT22;6470;47.654;7.896;2024-02-23T08:47:11;7.80;99.90
12811;DHT22;6470;47.654;7.896;2024-02-23T08:49:37;6.80;99.90
12811;DHT22;6470;47.654;7.896;2024-02-23T08:54:29;6.90;99.90
12811;DHT22;6470;47.654;7.896;2024-02-23T09:01:47;6.30;99.90
12811;DHT22;6470;47.654;7.896;2024-02-23T09:04:13;8.60;99.90
12811;DHT22;6470;47.654;7.896;2024-02-23T09:09:05;8.10;99.90
12811;DHT22;6470;47.654;7.896;2024-02-23T09:11:31;8.20;99.90
12811;DHT22;6470;47.654;7.896;2024-02-23T09:13:57;7.60;99.90
12811;DHT22;6470;47.654;7.896;2024-02-23T09:16:22;8.80;99.90
12811;DHT22;6470;47.654;7.896;2024-02-23T09:18:50;8.30;99.90
12811;DHT22;6470;47.654;7.896;2024-02-23T09:21:16;8.60;99.90
12811;DHT22;6470;47.654;7.896;2024-02-23T09:23:42;8.20;99.90
12811;DHT22;6470;47.654;7.896;2024-02-23T09:26:11;8.60;99.90
12811;DHT22;6470;47.654;7.896;2024-02-23T09:28:37;8.60;99.90
12811;DHT22;6470;47.654;7.896;2024-02-23T09:33:30;8.30;99.90
12811;DHT22;6470;47.654;7.896;2024-02-23T09:35:57;9.30;99.90
12811;DHT22;6470;47.654;7.896;2024-02-23T09:38:23;9.30;99.90
12811;DHT22;6470;47.654;7.896;2024-02-23T09:40:51;8.50;99.90
12811;DHT22;6470;47.654;7.896;2024-02-23T09:43:17;7.70;99.90
12811;DHT22;6470;47.654;7.896;2024-02-23T09:45:46;7.90;99.90
12811;DHT22;6470;47.654;7.896;2024-02-23T09:48:14;8.20;99.90
12811;DHT22;6470;47.654;7.896;2024-02-23T09:50:40;8.40;99.90
12811;DHT22;6470;47.654;7.896;2024-02-23T09:53:07;9.20;99.90
12811;DHT22;6470;47.654;7.896;2024-02-23T09:55:36;8.90;99.90
12811;DHT22;6470;47.654;7.896;2024-02-23T09:58:02;8.80;99.90
12811;DHT22;6470;47.654;7.896;2024-02-23T10:00:29;8.70;99.90
12811;DHT22;6470;47.654;7.896;2024-02-23T10:02:56;8.80;99.90
12811;DHT22;6470;47.654;7.896;2024-02-23T10:05:23;8.90;99.90
12811;DHT22;6470;47.654;7.896;2024-02-23T10:07:54;9.00;99.90
12811;DHT22;6470;47.654;7.896;2024-02-23T10:10:33;8.30;99.90
12811;DHT22;6470;47.654;7.896;2024-02-23T10:13:00;8.80;99.90
12811;DHT22;6470;47.654;7.896;2024-02-23T10:15:28;8.90;99.90
12811;DHT22;6470;47.654;7.896;2024-02-23T10:17:54;6.60;99.90
12811;DHT22;6470;47.654;7.896;2024-02-23T10:20:20;9.00;99.90
12811;DHT22;6470;47.654;7.896;2024-02-23T10:22:46;8.70;99.90
12811;DHT22;6470;47.654;7.896;2024-02-23T10:25:12;6.70;99.90
12811;DHT22;6470;47.654;7.896;2024-02-23T10:27:38;8.90;99.90
12811;DHT22;6470;47.654;7.896;2024-02-23T10:30:03;8.00;99.90
12811;DHT22;6470;47.654;7.896;2024-02-23T10:32:30;9.40;99.90
12811;DHT22;6470;47.654;7.896;2024-02-23T10:35:00;8.90;99.90
12811;DHT22;6470;47.654;7.896;2024-02-23T10:37:30;8.40;99.90
12811;DHT22;6470;47.654;7.896;2024-02-23T10:39:57;8.30;99.90
12811;DHT22;6470;47.654;7.896;2024-02-23T10:42:33;7.90;99.90
12811;DHT22;6470;47.654;7.896;2024-02-23T10:45:01;7.90;99.90
12811;DHT22;6470;47.654;7.896;2024-02-23T10:49:53;8.60;99.90
12811;DHT22;6470;47.654;7.896;2024-02-23T10:52:22;8.20;99.90
12811;DHT22;6470;47.654;7.896;2024-02-23T10:54:51;8.50;99.90
12811;DHT22;6470;47.654;7.896;2024-02-23T10:57:17;9.30;99.90
12811;DHT22;6470;47.654;7.896;2024-02-23T10:59:47;9.00;99.90
12811;DHT22;6470;47.654;7.896;2024-02-23T11:02:14;9.50;99.90
12811;DHT22;6470;47.654;7.896;2024-02-23T11:04:46;9.40;99.90
12811;DHT22;6470;47.654;7.896;2024-02-23T11:07:18;9.20;99.90
12811;DHT22;6470;47.654;7.896;2024-02-23T11:09:52;9.80;99.90
12811;DHT22;6470;47.654;7.896;2024-02-23T11:12:25;9.40;99.90
12811;DHT22;6470;47.654;7.896;2024-02-23T11:17:19;9.30;99.90
12811;DHT22;6470;47.654;7.896;2024-02-23T11:19:48;9.20;99.90
12811;DHT22;6470;47.654;7.896;2024-02-23T11:22:14;8.70;99.90
12811;DHT22;6470;47.654;7.896;2024-02-23T11:24:43;8.60;99.90
12811;DHT22;6470;47.654;7.896;2024-02-23T11:27:14;8.60;99.90
12811;DHT22;6470;47.654;7.896;2024-02-23T11:29:42;9.50;99.90
12811;DHT22;6470;47.654;7.896;2024-02-23T11:32:16;9.20;99.90
12811;DHT22;6470;47.654;7.896;2024-02-23T11:34:56;8.70;99.90
12811;DHT22;6470;47.654;7.896;2024-02-23T11:37:22;9.00;99.90
12811;DHT22;6470;47.654;7.896;2024-02-23T11:39:48;9.10;99.90
12811;DHT22;6470;47.654;7.896;2024-02-23T11:42:14;9.00;99.90
12811;DHT22;6470;47.654;7.896;2024-02-23T11:47:09;9.40;99.90
12811;DHT22;6470;47.654;7.896;2024-02-23T11:49:35;9.00;99.90
12811;DHT22;6470;47.654;7.896;2024-02-23T11:52:01;9.70;99.90
12811;DHT22;6470;47.654;7.896;2024-02-23T11:54:28;9.50;99.90
12811;DHT22;6470;47.654;7.896;2024-02-23T11:59:20;8.70;99.90
12811;DHT22;6470;47.654;7.896;2024-02-23T12:01:47;9.50;99.90
12811;DHT22;6470;47.654;7.896;2024-02-23T12:04:14;10.40;99.90
12811;DHT22;6470;47.654;7.896;2024-02-23T12:06:40;9.90;99.90
12811;DHT22;6470;47.654;7.896;2024-02-23T12:11:34;10.20;99.90
12811;DHT22;6470;47.654;7.896;2024-02-23T12:14:00;12.10;99.90
12811;DHT22;6470;47.654;7.896;2024-02-23T12:19:01;11.10;99.90
12811;DHT22;6470;47.654;7.896;2024-02-23T12:21:28;11.80;99.90
12811;DHT22;6470;47.654;7.896;2024-02-23T12:23:53;12.10;99.90
12811;DHT22;6470;47.654;7.896;2024-02-23T12:26:20;12.50;99.90
12811;DHT22;6470;47.654;7.896;2024-02-23T12:28:46;12.00;99.90
12811;DHT22;6470;47.654;7.896;2024-02-23T12:31:12;9.30;99.90
12811;DHT22;6470;47.654;7.896;2024-02-23T12:33:39;9.70;99.90
12811;DHT22;6470;47.654;7.896;2024-02-23T12:36:10;12.40;99.90
12811;DHT22;6470;47.654;7.896;2024-02-23T12:38:36;12.40;99.90
12811;DHT22;6470;47.654;7.896;2024-02-23T12:41:02;12.00;99.90
12811;DHT22;6470;47.654;7.896;2024-02-23T12:43:28;10.40;99.90
12811;DHT22;6470;47.654;7.896;2024-02-23T12:45:55;12.50;99.90
12811;DHT22;6470;47.654;7.896;2024-02-23T12:48:22;15.30;99.90
12811;DHT22;6470;47.654;7.896;2024-02-23T12:50:48;11.50;99.90
12811;DHT22;6470;47.654;7.896;2024-02-23T12:53:34;12.30;99.90
12811;DHT22;6470;47.654;7.896;2024-02-23T12:56:09;11.80;99.90
12811;DHT22;6470;47.654;7.896;2024-02-23T12:58:36;10.30;99.90
12811;DHT22;6470;47.654;7.896;2024-02-23T13:01:02;11.50;99.90
12811;DHT22;6470;47.654;7.896;2024-02-23T13:03:28;11.80;99.90
12811;DHT22;6470;47.654;7.896;2024-02-23T13:05:57;12.10;99.90
12811;DHT22;6470;47.654;7.896;2024-02-23T13:08:24;10.60;99.90
12811;DHT22;6470;47.654;7.896;2024-02-23T13:10:51;10.00;99.90
12811;DHT22;6470;47.654;7.896;2024-02-23T13:15:44;12.10;99.90
12811;DHT22;6470;47.654;7.896;2024-02-23T13:20:37;12.40;99.90
12811;DHT22;6470;47.654;7.896;2024-02-23T13:23:04;11.50;99.90
12811;DHT22;6470;47.654;7.896;2024-02-23T13:27:56;12.40;99.90
12811;DHT22;6470;47.654;7.896;2024-02-23T13:30:23;9.40;99.90
12811;DHT22;6470;47.654;7.896;2024-02-23T13:32:48;11.30;99.90
12811;DHT22;6470;47.654;7.896;2024-02-23T13:35:14;10.70;99.90
12811;DHT22;6470;47.654;7.896;2024-02-23T13:37:41;10.30;99.90
12811;DHT22;6470;47.654;7.896;2024-02-23T13:40:08;11.50;99.90
12811;DHT22;6470;47.654;7.896;2024-02-23T13:42:35;10.70;99.90
12811;DHT22;6470;47.654;7.896;2024-02-23T13:45:01;14.90;99.90
12811;DHT22;6470;47.654;7.896;2024-02-23T13:47:27;15.10;99.90
12811;DHT22;6470;47.654;7.896;2024-02-23T13:49:53;15.40;99.90
12811;DHT22;6470;47.654;7.896;2024-02-23T13:52:18;12.00;99.90
12811;DHT22;6470;47.654;7.896;2024-02-23T13:54:44;14.80;99.90
12811;DHT22;6470;47.654;7.896;2024-02-23T13:57:10;15.40;99.90
12811;DHT22;6470;47.654;7.896;2024-02-23T13:59:36;12.10;99.90
12811;DHT22;6470;47.654;7.896;2024-02-23T14:02:02;15.10;99.90
12811;DHT22;6470;47.654;7.896;2024-02-23T14:04:28;11.60;99.90
12811;DHT22;6470;47.654;7.896;2024-02-23T14:06:54;9.80;99.90
12811;DHT22;6470;47.654;7.896;2024-02-23T14:09:19;15.00;99.90
12811;DHT22;6470;47.654;7.896;2024-02-23T14:11:45;11.90;99.90
12811;DHT22;6470;47.654;7.896;2024-02-23T14:14:11;11.90;99.90
12811;DHT22;6470;47.654;7.896;2024-02-23T14:16:37;14.50;99.90
12811;DHT22;6470;47.654;7.896;2024-02-23T14:23:55;12.00;99.90
12811;DHT22;6470;47.654;7.896;2024-02-23T14:26:21;9.60;99.90
12811;DHT22;6470;47.654;7.896;2024-02-23T14:28:47;12.30;99.90
12811;DHT22;6470;47.654;7.896;2024-02-23T14:33:40;12.10;99.90
12811;DHT22;6470;47.654;7.896;2024-02-23T14:36:06;10.70;99.90
12811;DHT22;6470;47.654;7.896;2024-02-23T14:38:32;10.50;99.90
12811;DHT22;6470;47.654;7.896;2024-02-23T14:40:58;10.20;99.90
12811;DHT22;6470;47.654;7.896;2024-02-23T14:43:24;9.90;99.90
12811;DHT22;6470;47.654;7.896;2024-02-23T14:45:50;11.80;99.90
12811;DHT22;6470;47.654;7.896;2024-02-23T14:50:44;9.40;99.90
12811;DHT22;6470;47.654;7.896;2024-02-23T14:55:37;10.60;99.90
12811;DHT22;6470;47.654;7.896;2024-02-23T14:58:03;10.30;99.90
12811;DHT22;6470;47.654;7.896;2024-02-23T15:00:29;9.40;99.90
12811;DHT22;6470;47.654;7.896;2024-02-23T15:05:22;10.30;99.90
12811;DHT22;6470;47.654;7.896;2024-02-23T15:07:48;10.20;99.90
12811;DHT22;6470;47.654;7.896;2024-02-23T15:10:14;10.00;99.90
12811;DHT22;6470;47.654;7.896;2024-02-23T15:12:40;10.40;99.90
12811;DHT22;6470;47.654;7.896;2024-02-23T15:15:07;10.30;99.90
12811;DHT22;6470;47.654;7.896;2024-02-23T15:17:33;9.60;99.90
12811;DHT22;6470;47.654;7.896;2024-02-23T15:22:25;10.40;99.90
12811;DHT22;6470;47.654;7.896;2024-02-23T15:24:51;9.90;99.90
12811;DHT22;6470;47.654;7.896;2024-02-23T15:27:18;10.30;99.90
12811;DHT22;6470;47.654;7.896;2024-02-23T15:29:45;10.00;99.90
12811;DHT22;6470;47.654;7.896;2024-02-23T15:32:11;10.30;99.90
12811;DHT22;6470;47.654;7.896;2024-02-23T15:34:36;10.10;99.90
12811;DHT22;6470;47.654;7.896;2024-02-23T15:37:02;10.30;99.90
12811;DHT22;6470;47.654;7.896;2024-02-23T15:39:28;9.60;99.90
12811;DHT22;6470;47.654;7.896;2024-02-23T15:41:54;9.60;99.90
12811;DHT22;6470;47.654;7.896;2024-02-23T15:44:20;9.70;99.90
12811;DHT22;6470;47.654;7.896;2024-02-23T15:51:39;9.40;99.90
12811;DHT22;6470;47.654;7.896;2024-02-23T15:56:31;9.50;99.90
12811;DHT22;6470;47.654;7.896;2024-02-23T15:58:57;10.60;99.90
12811;DHT22;6470;47.654;7.896;2024-02-23T16:01:23;10.00;99.90
12811;DHT22;6470;47.654;7.896;2024-02-23T16:03:49;10.10;99.90
12811;DHT22;6470;47.654;7.896;2024-02-23T16:06:14;10.10;99.90
12811;DHT22;6470;47.654;7.896;2024-02-23T16:08:45;9.90;99.90
12811;DHT22;6470;47.654;7.896;2024-02-23T16:11:12;9.20;99.90
12811;DHT22;6470;47.654;7.896;2024-02-23T16:13:39;10.60;99.90
12811;DHT22;6470;47.654;7.896;2024-02-23T16:16:09;10.50;99.90
12811;DHT22;6470;47.654;7.896;2024-02-23T16:18:36;10.40;99.90
12811;DHT22;6470;47.654;7.896;2024-02-23T16:25:54;10.00;99.90
12811;DHT22;6470;47.654;7.896;2024-02-23T16:30:46;9.50;99.90
12811;DHT22;6470;47.654;7.896;2024-02-23T16:33:13;9.10;99.90
12811;DHT22;6470;47.654;7.896;2024-02-23T16:35:39;7.30;99.90
12811;DHT22;6470;47.654;7.896;2024-02-23T16:40:30;9.30;99.90
12811;DHT22;6470;47.654;7.896;2024-02-23T16:45:26;8.90;99.90
12811;DHT22;6470;47.654;7.896;2024-02-23T16:47:53;8.60;99.90
12811;DHT22;6470;47.654;7.896;2024-02-23T16:50:19;8.10;99.90
12811;DHT22;6470;47.654;7.896;2024-02-23T16:52:46;6.30;99.90
12811;DHT22;6470;47.654;7.896;2024-02-23T16:55:12;7.90;99.90
12811;DHT22;6470;47.654;7.896;2024-02-23T16:57:38;8.40;99.90
12811;DHT22;6470;47.654;7.896;2024-02-23T17:00:04;7.70;99.90
12811;DHT22;6470;47.654;7.896;2024-02-23T17:02:31;7.50;99.90
12811;DHT22;6470;47.654;7.896;2024-02-23T17:07:29;7.70;99.90
12811;DHT22;6470;47.654;7.896;2024-02-23T17:09:58;6.60;99.90
12811;DHT22;6470;47.654;7.896;2024-02-23T17:12:24;7.50;99.90
12811;DHT22;6470;47.654;7.896;2024-02-23T17:14:52;7.20;99.90
12811;DHT22;6470;47.654;7.896;2024-02-23T17:17:18;7.30;99.90
12811;DHT22;6470;47.654;7.896;2024-02-23T17:19:44;7.40;99.90
12811;DHT22;6470;47.654;7.896;2024-02-23T17:29:29;7.40;99.90
12811;DHT22;6470;47.654;7.896;2024-02-23T17:34:21;7.50;99.90
12811;DHT22;6470;47.654;7.896;2024-02-23T17:36:47;3.80;99.90
12811;DHT22;6470;47.654;7.896;2024-02-23T17:39:13;7.60;99.90
12811;DHT22;6470;47.654;7.896;2024-02-23T17:41:39;7.30;99.90
12811;DHT22;6470;47.654;7.896;2024-02-23T17:44:05;7.20;99.90
12811;DHT22;6470;47.654;7.896;2024-02-23T17:46:31;6.40;99.90
12811;DHT22;6470;47.654;7.896;2024-02-23T17:48:57;6.30;99.90
12811;DHT22;6470;47.654;7.896;2024-02-23T17:51:23;6.70;99.90
12811;DHT22;6470;47.654;7.896;2024-02-23T17:53:50;6.80;99.90
12811;DHT22;6470;47.654;7.896;2024-02-23T17:56:16;5.80;99.90
12811;DHT22;6470;47.654;7.896;2024-02-23T17:58:41;6.50;99.90
12811;DHT22;6470;47.654;7.896;2024-02-23T18:01:07;6.70;99.90
12811;DHT22;6470;47.654;7.896;2024-02-23T18:03:33;6.60;99.90
12811;DHT22;6470;47.654;7.896;2024-02-23T18:05:58;6.30;99.90
12811;DHT22;6470;47.654;7.896;2024-02-23T18:08:24;6.40;99.90
12811;DHT22;6470;47.654;7.896;2024-02-23T18:10:50;6.20;99.90
12811;DHT22;6470;47.654;7.896;2024-02-23T18:15:43;6.60;99.90
12811;DHT22;6470;47.654;7.896;2024-02-23T18:18:09;5.90;99.90
12811;DHT22;6470;47.654;7.896;2024-02-23T18:20:35;5.50;99.90
12811;DHT22;6470;47.654;7.896;2024-02-23T18:23:00;5.90;99.90
12811;DHT22;6470;47.654;7.896;2024-02-23T18:30:18;6.20;99.90
12811;DHT22;6470;47.654;7.896;2024-02-23T18:35:11;6.10;99.90
12811;DHT22;6470;47.654;7.896;2024-02-23T18:37:37;5.70;99.90
12811;DHT22;6470;47.654;7.896;2024-02-23T18:40:03;2.80;99.90
12811;DHT22;6470;47.654;7.896;2024-02-23T18:42:29;6.10;99.90
12811;DHT22;6470;47.654;7.896;2024-02-23T18:44:55;6.10;99.90
12811;DHT22;6470;47.654;7.896;2024-02-23T18:47:24;6.10;99.90
12811;DHT22;6470;47.654;7.896;2024-02-23T18:52:16;5.60;99.90
12811;DHT22;6470;47.654;7.896;2024-02-23T18:54:42;5.80;99.90
12811;DHT22;6470;47.654;7.896;2024-02-23T18:57:08;5.80;99.90
12811;DHT22;6470;47.654;7.896;2024-02-23T19:02:00;2.70;99.90
12811;DHT22;6470;47.654;7.896;2024-02-23T19:04:26;2.40;99.90
12811;DHT22;6470;47.654;7.896;2024-02-23T19:06:51;5.70;99.90
12811;DHT22;6470;47.654;7.896;2024-02-23T19:09:17;2.40;99.90
12811;DHT22;6470;47.654;7.896;2024-02-23T19:11:43;2.50;99.90
12811;DHT22;6470;47.654;7.896;2024-02-23T19:14:09;5.90;99.90
12811;DHT22;6470;47.654;7.896;2024-02-23T19:16:35;5.80;99.90
12811;DHT22;6470;47.654;7.896;2024-02-23T19:19:01;5.50;99.90
12811;DHT22;6470;47.654;7.896;2024-02-23T19:21:31;5.60;99.90